createdAt,value
2023-01-09T00:02:31.186Z,6.69
2023-01-09T00:05:34.159Z,6.59
2023-01-09T00:08:36.680Z,6.63
2023-01-09T00:11:39.570Z,6.59
2023-01-09T00:14:42.238Z,6.56
2023-01-09T00:17:47.955Z,6.66
2023-01-09T00:20:50.657Z,6.71
2023-01-09T00:23:54.476Z,6.76
2023-01-09T00:26:57.011Z,6.81
2023-01-09T00:30:01.148Z,6.84
2023-01-09T00:33:03.779Z,6.99
2023-01-09T00:36:07.060Z,7.07
2023-01-09T00:39:09.693Z,7.06
2023-01-09T00:42:16.510Z,7.05
2023-01-09T00:45:28.663Z,7.02
2023-01-09T00:48:32.551Z,7.20
2023-01-09T00:51:35.111Z,7.15
2023-01-09T00:54:38.687Z,7.15
2023-01-09T00:57:41.453Z,7.15
2023-01-09T01:00:44.636Z,7.20
2023-01-09T01:03:47.487Z,7.13
2023-01-09T01:07:09.343Z,7.20
2023-01-09T01:10:21.160Z,7.20
2023-01-09T01:13:23.976Z,7.22
2023-01-09T01:16:26.595Z,7.23
2023-01-09T01:19:29.812Z,7.26
2023-01-09T01:22:32.407Z,7.25
2023-01-09T01:25:39.696Z,7.29
2023-01-09T01:28:42.885Z,7.28
2023-01-09T01:31:45.831Z,7.26
2023-01-09T01:34:48.377Z,7.11
2023-01-09T01:37:51.290Z,7.20
2023-01-09T01:40:54.705Z,7.18
2023-01-09T01:44:06.771Z,7.14
2023-01-09T01:47:09.467Z,7.12
2023-01-09T01:50:31.977Z,7.13
2023-01-09T01:53:42.150Z,7.15
2023-01-09T01:56:53.685Z,7.16
2023-01-09T01:59:58.733Z,7.14
2023-01-09T02:03:02.360Z,7.10
2023-01-09T02:06:06.392Z,7.14
2023-01-09T02:09:09.394Z,7.04
2023-01-09T02:12:25.024Z,7.12
2023-01-09T02:15:28.412Z,7.11
2023-01-09T02:18:35.152Z,7.03
2023-01-09T02:21:58.925Z,7.12
2023-01-09T02:25:27.550Z,7.14
2023-01-09T02:28:54.678Z,7.11
2023-01-09T02:32:04.243Z,7.06
2023-01-09T02:35:35.459Z,7.03
2023-01-09T02:39:15.993Z,7.04
2023-01-09T02:42:23.784Z,7.05
2023-01-09T02:45:27.205Z,7.00
2023-01-09T02:48:30.812Z,6.85
2023-01-09T02:51:53.449Z,6.84
2023-01-09T02:55:24.580Z,6.77
2023-01-09T02:58:30.597Z,6.72
2023-01-09T03:01:46.479Z,6.72
2023-01-09T03:04:59.723Z,6.69
2023-01-09T03:08:05.182Z,6.66
2023-01-09T03:11:09.083Z,6.67
2023-01-09T03:14:15.980Z,6.67
2023-01-09T03:17:40.415Z,6.64
2023-01-09T03:20:44.181Z,6.63
2023-01-09T03:23:50.032Z,6.71
2023-01-09T03:26:54.424Z,6.75
2023-01-09T03:29:57.986Z,6.81
2023-01-09T03:33:00.608Z,6.78
2023-01-09T03:36:04.322Z,6.74
2023-01-09T03:39:07.167Z,6.74
2023-01-09T03:42:10.199Z,6.74
2023-01-09T03:45:13.354Z,6.71
2023-01-09T03:48:16.525Z,6.70
2023-01-09T03:51:19.055Z,6.69
2023-01-09T03:54:21.876Z,6.68
2023-01-09T03:57:24.495Z,6.71
2023-01-09T04:00:27.828Z,6.73
2023-01-09T04:03:31.082Z,6.75
2023-01-09T04:06:33.683Z,6.84
2023-01-09T04:09:36.769Z,6.77
2023-01-09T04:12:39.389Z,6.75
2023-01-09T04:15:42.517Z,6.84
2023-01-09T04:18:45.266Z,6.79
2023-01-09T04:21:48.490Z,6.71
2023-01-09T04:24:51.099Z,6.78
2023-01-09T04:27:54.226Z,6.71
2023-01-09T04:30:56.991Z,6.77
2023-01-09T04:33:59.957Z,6.74
2023-01-09T04:37:02.540Z,6.68
2023-01-09T04:40:10.257Z,6.71
2023-01-09T04:43:12.939Z,6.74
2023-01-09T04:46:15.801Z,6.77
2023-01-09T04:49:18.743Z,6.73
2023-01-09T04:52:21.526Z,6.73
2023-01-09T04:55:24.210Z,6.63
2023-01-09T04:58:27.112Z,6.69
2023-01-09T05:01:29.944Z,6.76
2023-01-09T05:04:32.953Z,6.63
2023-01-09T05:07:35.617Z,6.58
2023-01-09T05:10:38.450Z,6.46
2023-01-09T05:13:41.127Z,6.35
2023-01-09T05:16:44.075Z,6.13
2023-01-09T05:19:46.652Z,6.10
2023-01-09T05:22:49.677Z,5.94
2023-01-09T05:25:52.501Z,5.83
2023-01-09T05:28:58.636Z,5.76
2023-01-09T05:32:01.569Z,5.71
2023-01-09T05:35:04.735Z,5.59
2023-01-09T05:38:07.428Z,5.44
2023-01-09T05:41:10.614Z,5.41
2023-01-09T05:44:14.964Z,5.38
2023-01-09T05:47:18.150Z,5.41
2023-01-09T05:50:20.809Z,5.24
2023-01-09T05:53:23.689Z,5.20
2023-01-09T05:56:26.295Z,5.25
2023-01-09T05:59:29.148Z,5.22
2023-01-09T06:02:31.980Z,5.17
2023-01-09T06:05:34.935Z,5.10
2023-01-09T06:08:37.528Z,5.07
2023-01-09T06:11:40.594Z,5.43
2023-01-09T06:14:43.372Z,5.68
2023-01-09T06:17:46.593Z,5.46
2023-01-09T06:20:49.556Z,5.30
2023-01-09T06:23:52.454Z,5.21
2023-01-09T06:26:55.055Z,5.12
2023-01-09T06:29:58.196Z,5.01
2023-01-09T06:33:00.966Z,4.95
2023-01-09T06:36:03.966Z,4.89
2023-01-09T06:39:06.498Z,4.75
2023-01-09T06:42:09.366Z,4.87
2023-01-09T06:45:13.182Z,4.85
2023-01-09T06:48:16.373Z,4.89
2023-01-09T06:51:18.853Z,4.88
2023-01-09T06:54:22.771Z,4.88
2023-01-09T06:57:25.327Z,4.87
2023-01-09T07:00:29.676Z,5.00
2023-01-09T07:03:33.794Z,5.27
2023-01-09T07:06:38.087Z,5.10
2023-01-09T07:09:40.649Z,5.05
2023-01-09T07:12:43.548Z,5.02
2023-01-09T07:15:46.210Z,5.02
2023-01-09T07:18:49.306Z,4.93
2023-01-09T07:21:52.279Z,4.97
2023-01-09T07:24:55.794Z,4.94
2023-01-09T07:27:58.281Z,4.85
2023-01-09T07:31:04.834Z,4.88
2023-01-09T07:34:07.720Z,4.80
2023-01-09T07:37:10.683Z,4.82
2023-01-09T07:40:13.734Z,4.78
2023-01-09T07:43:16.766Z,4.78
2023-01-09T07:46:19.375Z,4.65
2023-01-09T07:49:22.529Z,4.80
2023-01-09T07:52:25.364Z,4.85
2023-01-09T07:55:28.355Z,4.88
2023-01-09T07:58:31.509Z,4.81
2023-01-09T08:01:34.708Z,4.93
2023-01-09T08:04:37.807Z,4.92
2023-01-09T08:07:41.043Z,4.89
2023-01-09T08:10:44.461Z,4.87
2023-01-09T08:13:47.029Z,4.94
2023-01-09T08:16:49.913Z,4.97
2023-01-09T08:19:53.445Z,4.99
2023-01-09T08:22:56.951Z,4.99
2023-01-09T08:25:59.742Z,4.95
2023-01-09T08:29:02.729Z,4.98
2023-01-09T08:32:05.760Z,5.01
2023-01-09T08:35:09.360Z,4.97
2023-01-09T08:38:11.965Z,4.84
2023-01-09T08:41:33.482Z,4.87
2023-01-09T08:44:54.641Z,4.83
2023-01-09T08:47:57.671Z,4.88
2023-01-09T08:51:00.317Z,4.91
2023-01-09T08:54:03.410Z,4.80
2023-01-09T08:57:06.938Z,4.93
2023-01-09T09:00:10.968Z,4.95
2023-01-09T09:03:14.656Z,4.96
2023-01-09T09:06:17.568Z,4.90
2023-01-09T09:09:20.253Z,4.98
2023-01-09T09:12:23.384Z,5.01
2023-01-09T09:15:27.832Z,4.98
2023-01-09T09:18:31.043Z,5.05
2023-01-09T09:21:33.927Z,5.05
2023-01-09T09:24:36.951Z,5.08
2023-01-09T09:27:40.056Z,5.05
2023-01-09T09:30:43.007Z,5.04
2023-01-09T09:33:45.675Z,5.09
2023-01-09T09:36:48.780Z,5.08
2023-01-09T09:39:51.473Z,4.98
2023-01-09T09:43:28.265Z,5.08
2023-01-09T09:46:52.622Z,5.09
2023-01-09T09:50:20.661Z,5.05
2023-01-09T09:53:49.703Z,5.05
2023-01-09T09:57:05.730Z,5.09
2023-01-09T10:00:16.699Z,5.03
2023-01-09T10:03:36.427Z,5.04
2023-01-09T10:06:48.938Z,5.04
2023-01-09T10:09:54.839Z,5.02
2023-01-09T10:12:59.594Z,4.98
2023-01-09T10:16:36.608Z,5.00
2023-01-09T10:20:19.859Z,4.98
2023-01-09T10:23:50.626Z,4.99
2023-01-09T10:26:54.186Z,5.02
2023-01-09T10:30:07.259Z,5.02
2023-01-09T10:33:21.161Z,5.03
2023-01-09T10:36:39.357Z,4.98
2023-01-09T10:39:53.216Z,5.09
2023-01-09T10:43:04.736Z,5.05
2023-01-09T10:46:15.450Z,5.00
2023-01-09T10:49:18.819Z,4.98
2023-01-09T10:52:26.129Z,4.99
2023-01-09T10:55:44.055Z,4.99
2023-01-09T10:58:46.990Z,4.95
2023-01-09T11:01:55.968Z,4.95
2023-01-09T11:04:58.589Z,4.92
2023-01-09T11:08:07.104Z,4.89
2023-01-09T11:11:10.771Z,4.95
2023-01-09T11:14:18.330Z,4.90
2023-01-09T11:17:25.798Z,4.87
2023-01-09T11:20:30.149Z,4.89
2023-01-09T11:23:33.203Z,4.88
2023-01-09T11:26:36.133Z,4.89
2023-01-09T11:29:39.133Z,4.84
2023-01-09T11:32:43.514Z,4.91
2023-01-09T11:36:13.208Z,4.94
2023-01-09T11:39:25.023Z,4.93
2023-01-09T11:42:48.268Z,4.94
2023-01-09T11:46:01.677Z,4.81
2023-01-09T11:49:27.934Z,4.83
2023-01-09T11:52:31.148Z,4.82
2023-01-09T11:55:41.891Z,4.74
2023-01-09T11:58:45.342Z,4.93
2023-01-09T12:02:22.510Z,4.80
2023-01-09T12:05:46.118Z,4.90
2023-01-09T12:08:55.085Z,4.91
2023-01-09T12:12:13.311Z,4.93
2023-01-09T12:15:25.974Z,4.82
2023-01-09T12:18:38.005Z,4.80
2023-01-09T12:21:58.701Z,4.81
2023-01-09T12:25:18.174Z,4.85
2023-01-09T12:28:30.211Z,4.85
2023-01-09T12:31:34.855Z,4.86
2023-01-09T12:35:00.522Z,4.84
2023-01-09T12:38:09.331Z,4.87
2023-01-09T12:41:14.701Z,4.88
2023-01-09T12:44:57.130Z,4.87
2023-01-09T12:48:17.057Z,4.93
2023-01-09T12:51:25.963Z,4.97
2023-01-09T12:54:36.842Z,4.86
2023-01-09T12:57:45.000Z,4.95
2023-01-09T13:00:49.745Z,4.98
2023-01-09T13:04:28.405Z,4.97
2023-01-09T13:07:41.650Z,4.94
2023-01-09T13:10:49.912Z,4.98
2023-01-09T13:14:00.072Z,4.87
2023-01-09T13:17:06.181Z,4.95
2023-01-09T13:20:45.666Z,4.96
2023-01-09T13:23:50.076Z,4.97
2023-01-09T13:26:56.893Z,4.97
2023-01-09T13:30:12.255Z,4.95
2023-01-09T13:33:20.312Z,4.94
2023-01-09T13:36:29.497Z,4.93
2023-01-09T13:39:35.068Z,4.91
2023-01-09T13:42:46.473Z,4.89
2023-01-09T13:45:51.347Z,4.76
2023-01-09T13:48:54.253Z,4.87
2023-01-09T13:51:59.755Z,4.80
2023-01-09T13:55:04.958Z,4.84
2023-01-09T13:58:13.709Z,4.84
2023-01-09T14:01:35.413Z,4.84
2023-01-09T14:04:43.502Z,4.82
2023-01-09T14:07:49.149Z,4.80
2023-01-09T14:10:58.095Z,4.80
2023-01-09T14:14:03.054Z,4.79
2023-01-09T14:17:38.549Z,4.79
2023-01-09T14:20:48.209Z,4.76
2023-01-09T14:24:06.653Z,4.75
2023-01-09T14:27:47.293Z,4.76
2023-01-09T14:30:52.957Z,4.78
2023-01-09T14:34:35.750Z,4.79
2023-01-09T14:37:40.955Z,5.69
2023-01-09T14:40:49.345Z,6.01
2023-01-09T14:44:01.291Z,5.77
2023-01-09T14:47:16.234Z,5.51
2023-01-09T14:50:19.237Z,5.33
2023-01-09T14:53:30.419Z,5.18
2023-01-09T14:56:34.855Z,5.15
2023-01-09T14:59:37.518Z,5.10
2023-01-09T15:02:41.457Z,5.06
2023-01-09T15:05:45.702Z,5.02
2023-01-09T15:09:00.842Z,5.00
2023-01-09T15:12:08.650Z,4.94
2023-01-09T15:15:13.543Z,4.99
2023-01-09T15:18:21.396Z,4.99
2023-01-09T15:21:26.553Z,4.90
2023-01-09T15:24:32.794Z,4.47
2023-01-09T15:27:47.625Z,4.94
2023-01-09T15:31:00.759Z,4.95
2023-01-09T15:34:04.165Z,4.95
2023-01-09T15:37:39.389Z,4.96
2023-01-09T15:40:42.280Z,4.87
2023-01-09T15:43:44.908Z,4.84
2023-01-09T15:46:50.104Z,4.90
2023-01-09T15:49:52.923Z,4.81
2023-01-09T15:52:56.688Z,4.93
2023-01-09T15:56:31.400Z,4.93
2023-01-09T15:59:34.422Z,4.91
2023-01-09T16:03:06.642Z,4.90
2023-01-09T16:06:13.383Z,4.91
2023-01-09T16:09:31.096Z,4.89
2023-01-09T16:12:34.163Z,4.89
2023-01-09T16:15:36.955Z,4.88
2023-01-09T16:18:50.300Z,4.89
2023-01-09T16:21:57.673Z,4.88
2023-01-09T16:25:17.207Z,4.87
2023-01-09T16:28:24.505Z,4.84
2023-01-09T16:31:31.166Z,4.85
2023-01-09T16:34:35.267Z,4.85
2023-01-09T16:37:38.891Z,4.76
2023-01-09T16:41:16.209Z,4.86
2023-01-09T16:44:19.406Z,4.77
2023-01-09T16:47:22.052Z,4.59
2023-01-09T16:50:25.644Z,4.82
2023-01-09T16:53:31.887Z,5.80
2023-01-09T16:56:36.150Z,5.62
2023-01-09T16:59:39.305Z,5.41
2023-01-09T17:02:42.380Z,5.21
2023-01-09T17:05:51.278Z,5.10
2023-01-09T17:08:54.210Z,4.95
2023-01-09T17:11:56.919Z,4.96
2023-01-09T17:15:01.488Z,4.92
2023-01-09T17:18:05.540Z,4.88
2023-01-09T17:21:15.995Z,4.87
2023-01-09T17:24:37.069Z,4.86
2023-01-09T17:28:06.460Z,4.84
2023-01-09T17:31:11.446Z,4.83
2023-01-09T17:34:14.452Z,4.81
2023-01-09T17:37:18.721Z,4.80
2023-01-09T17:40:23.294Z,4.79
2023-01-09T17:43:25.907Z,4.76
2023-01-09T17:46:40.922Z,4.74
2023-01-09T17:49:43.700Z,4.74
2023-01-09T17:52:47.766Z,4.74
2023-01-09T17:55:50.372Z,4.73
2023-01-09T17:58:53.632Z,4.49
2023-01-09T18:01:56.211Z,4.73
2023-01-09T18:04:59.072Z,4.73
2023-01-09T18:08:01.805Z,4.72
2023-01-09T18:11:07.412Z,4.71
2023-01-09T18:14:13.391Z,4.71
2023-01-09T18:17:16.506Z,4.72
2023-01-09T18:20:19.360Z,4.72
2023-01-09T18:23:23.132Z,4.72
2023-01-09T18:26:25.880Z,4.72
2023-01-09T18:29:28.785Z,4.72
2023-01-09T18:32:31.773Z,4.57
2023-01-09T18:35:34.832Z,4.63
2023-01-09T18:38:37.768Z,4.60
2023-01-09T18:41:40.681Z,4.72
2023-01-09T18:44:43.329Z,4.73
2023-01-09T18:47:46.276Z,4.61
2023-01-09T18:50:49.523Z,4.71
2023-01-09T18:53:53.128Z,4.69
2023-01-09T18:56:55.795Z,4.69
2023-01-09T18:59:58.848Z,4.70
2023-01-09T19:03:01.643Z,4.69
2023-01-09T19:06:04.944Z,4.69
2023-01-09T19:09:07.610Z,4.67
2023-01-09T19:12:11.738Z,4.44
2023-01-09T19:15:14.617Z,4.64
2023-01-09T19:18:17.475Z,4.64
2023-01-09T19:21:22.341Z,4.54
2023-01-09T19:24:26.199Z,4.39
2023-01-09T19:27:30.467Z,4.54
2023-01-09T19:30:35.387Z,4.63
2023-01-09T19:33:38.043Z,4.63
2023-01-09T19:36:43.629Z,4.60
2023-01-09T19:39:46.949Z,4.49
2023-01-09T19:42:53.567Z,4.46
2023-01-09T19:45:56.800Z,4.64
2023-01-09T19:49:04.565Z,4.65
2023-01-09T19:52:08.260Z,4.64
2023-01-09T19:55:13.678Z,4.64
2023-01-09T19:58:16.238Z,4.65
2023-01-09T20:01:21.833Z,4.65
2023-01-09T20:04:26.774Z,4.66
2023-01-09T20:07:29.436Z,4.65
2023-01-09T20:10:36.881Z,4.52
2023-01-09T20:13:39.842Z,4.61
2023-01-09T20:16:43.831Z,4.60
2023-01-09T20:19:46.574Z,4.70
2023-01-09T20:22:49.453Z,4.45
2023-01-09T20:25:52.191Z,4.68
2023-01-09T20:28:55.985Z,4.70
2023-01-09T20:31:58.916Z,4.53
2023-01-09T20:35:02.456Z,4.70
2023-01-09T20:38:05.371Z,4.70
2023-01-09T20:41:11.155Z,4.70
2023-01-09T20:44:14.618Z,4.70
2023-01-09T20:47:17.582Z,4.68
2023-01-09T20:50:21.348Z,4.70
2023-01-09T20:53:24.363Z,4.70
2023-01-09T20:56:30.906Z,4.69
2023-01-09T20:59:33.849Z,4.68
2023-01-09T21:02:36.472Z,4.69
2023-01-09T21:05:40.738Z,4.70
2023-01-09T21:08:45.138Z,4.69
2023-01-09T21:11:48.193Z,4.69
2023-01-09T21:14:51.382Z,4.55
2023-01-09T21:17:55.673Z,4.68
2023-01-09T21:21:03.190Z,4.66
2023-01-09T21:24:08.167Z,4.64
2023-01-09T21:27:10.775Z,4.66
2023-01-09T21:30:14.008Z,4.50
2023-01-09T21:33:22.912Z,4.67
2023-01-09T21:36:25.881Z,4.68
2023-01-09T21:39:28.551Z,4.68
2023-01-09T21:42:50.144Z,4.58
2023-01-09T21:46:18.468Z,4.49
2023-01-09T21:49:25.731Z,4.65
2023-01-09T21:52:28.589Z,4.66
2023-01-09T21:55:34.336Z,4.67
2023-01-09T21:58:37.089Z,4.68
2023-01-09T22:01:40.106Z,4.67
2023-01-09T22:04:43.110Z,4.67
2023-01-09T22:07:45.913Z,4.60
2023-01-09T22:10:56.049Z,4.63
2023-01-09T22:14:00.718Z,4.59
2023-01-09T22:17:03.610Z,4.66
2023-01-09T22:20:07.069Z,4.55
2023-01-09T22:23:09.967Z,4.64
2023-01-09T22:26:14.460Z,4.66
2023-01-09T22:29:18.031Z,4.68
2023-01-09T22:32:22.691Z,4.68
2023-01-09T22:35:25.772Z,4.60
2023-01-09T22:38:28.472Z,4.69
2023-01-09T22:41:31.814Z,4.69
2023-01-09T22:44:34.451Z,4.54
2023-01-09T22:47:37.475Z,4.73
2023-01-09T22:50:40.103Z,4.73
2023-01-09T22:53:43.920Z,4.74
2023-01-09T22:56:46.474Z,4.68
2023-01-09T22:59:49.542Z,4.69
2023-01-09T23:02:52.397Z,4.74
2023-01-09T23:06:07.404Z,4.75
2023-01-09T23:09:10.184Z,4.57
2023-01-09T23:12:13.140Z,4.77
2023-01-09T23:15:15.694Z,4.77
2023-01-09T23:18:19.213Z,4.78
2023-01-09T23:21:21.880Z,4.68
2023-01-09T23:24:26.991Z,4.79
2023-01-09T23:27:29.770Z,4.73
2023-01-09T23:30:34.688Z,4.79
2023-01-09T23:33:37.277Z,4.80
2023-01-09T23:36:40.327Z,4.81
2023-01-09T23:39:43.258Z,4.81
2023-01-09T23:43:05.846Z,4.82
2023-01-09T23:46:08.803Z,4.84
2023-01-09T23:49:11.674Z,4.84
2023-01-09T23:52:14.680Z,4.84
2023-01-09T23:55:17.590Z,4.86
2023-01-09T23:58:20.874Z,4.85
